Time;durP1;ratioP1;P1;durP2;ratioP2;P2;SDS_P1;SDS_P2;PMS_P1;PMS_P2;Temp;Humidity;BMP_temperature;BMP_pressure;BME280_temperature;BME280_humidity;BME280_pressure;Samples;Min_cycle;Max_cycle;Signal;HPM_P1;HPM_P2
2023/03/22 00:02:04;;;;;;;0.70;0.70;;;;;;;13.30;100.00;99856.19;5092927;28;20225;-75
2023/03/22 00:04:31;;;;;;;0.93;0.93;;;;;;;13.35;100.00;99868.31;5093117;28;20583;-75
2023/03/22 00:06:58;;;;;;;0.60;0.60;;;;;;;13.34;100.00;99861.38;5057670;28;20656;-75
2023/03/22 00:09:25;;;;;;;0.70;0.70;;;;;;;13.26;100.00;99839.69;5093310;28;20202;-75
2023/03/22 00:11:52;;;;;;;2.40;1.05;;;;;;;13.45;100.00;99855.31;5093022;28;20202;-74
2023/03/22 00:14:19;;;;;;;0.70;0.70;;;;;;;13.48;100.00;99863.13;5092987;28;20206;-74
2023/03/22 00:16:47;;;;;;;0.70;0.70;;;;;;;13.56;100.00;99869.16;5093197;28;20229;-75
2023/03/22 00:19:16;;;;;;;0.60;0.60;;;;;;;13.53;100.00;99866.56;5092545;28;20225;-74
2023/03/22 00:21:42;;;;;;;0.70;0.70;;;;;;;13.54;100.00;99857.91;5093722;28;20209;-75
2023/03/22 00:24:09;;;;;;;0.60;0.60;;;;;;;13.55;100.00;99851.81;5092605;28;20213;-74
2023/03/22 00:26:36;;;;;;;0.70;0.70;;;;;;;13.65;100.00;99871.78;5092728;28;20201;-75
2023/03/22 00:29:03;;;;;;;0.60;0.60;;;;;;;13.64;100.00;99875.25;5057660;28;20194;-75
2023/03/22 00:31:30;;;;;;;0.80;0.80;;;;;;;13.56;100.00;99882.19;5092736;28;20653;-75
2023/03/22 00:33:58;;;;;;;0.80;0.80;;;;;;;13.62;100.00;99877.00;5092235;28;20631;-75
2023/03/22 00:36:25;;;;;;;0.80;0.80;;;;;;;13.57;100.00;99870.91;5092471;28;20229;-75
2023/03/22 00:38:52;;;;;;;0.80;0.80;;;;;;;13.66;100.00;99874.38;5092889;28;20194;-75
2023/03/22 00:41:21;;;;;;;0.80;0.80;;;;;;;13.45;100.00;99839.69;5092425;28;20206;-74
2023/03/22 00:43:49;;;;;;;0.80;0.80;;;;;;;13.59;100.00;99871.81;5077995;28;20194;-75
2023/03/22 00:46:18;;;;;;;0.60;0.60;;;;;;;13.68;100.00;99872.66;5092725;28;20201;-74
2023/03/22 00:48:45;;;;;;;0.60;0.60;;;;;;;13.63;100.00;99868.28;5084872;28;20196;-75
2023/03/22 00:51:13;;;;;;;0.77;0.77;;;;;;;13.63;100.00;99874.38;5092491;28;20221;-75
2023/03/22 00:53:41;;;;;;;0.80;0.80;;;;;;;13.57;100.00;99876.13;5092481;28;20213;-75
2023/03/22 00:56:09;;;;;;;0.70;0.70;;;;;;;13.43;100.00;99876.13;5091840;28;20225;-74
2023/03/22 00:58:36;;;;;;;0.70;0.70;;;;;;;13.33;100.00;99877.88;5092348;28;20287;-74
2023/03/22 01:01:03;;;;;;;0.60;0.60;;;;;;;13.20;100.00;99865.69;5092463;28;20202;-75
2023/03/22 01:03:33;;;;;;;0.70;0.70;;;;;;;13.20;100.00;99847.47;5040412;28;20202;-75
2023/03/22 01:06:00;;;;;;;0.80;0.80;;;;;;;13.26;100.00;99868.31;5091882;28;20673;-74
2023/03/22 01:08:31;;;;;;;0.60;0.60;;;;;;;13.33;100.00;99864.84;5092073;28;20206;-74
2023/03/22 01:10:59;;;;;;;0.70;0.70;;;;;;;13.37;100.00;99866.59;5092321;28;20206;-74
2023/03/22 01:13:26;;;;;;;0.60;0.60;;;;;;;13.34;100.00;99871.78;5091426;28;20244;-74
2023/03/22 01:15:53;;;;;;;0.60;0.60;;;;;;;13.34;100.00;99866.56;5092327;28;20198;-74
2023/03/22 01:18:19;;;;;;;0.70;0.70;;;;;;;13.35;100.00;99863.09;5091571;28;20237;-75
2023/03/22 01:20:46;;;;;;;0.75;0.75;;;;;;;13.31;100.00;99850.94;5091996;28;20206;-75
2023/03/22 01:23:13;;;;;;;1.00;1.00;;;;;;;13.48;100.00;99873.53;5091452;28;20202;-75
2023/03/22 01:25:41;;;;;;;0.80;0.80;;;;;;;13.53;100.00;99864.84;5091808;28;20202;-74
2023/03/22 01:28:08;;;;;;;0.70;0.70;;;;;;;13.46;100.00;99851.81;5091620;28;20198;-75
2023/03/22 01:30:35;;;;;;;0.70;0.70;;;;;;;13.53;100.00;99862.25;5091879;28;20205;-75
2023/03/22 01:33:02;;;;;;;1.20;1.10;;;;;;;13.49;100.00;99864.84;5091922;28;20217;-75
2023/03/22 01:35:29;;;;;;;0.90;0.90;;;;;;;13.50;100.00;99869.19;5090470;28;20198;-75
2023/03/22 01:37:56;;;;;;;0.77;0.77;;;;;;;13.34;100.00;99848.34;5091596;28;20213;-75
2023/03/22 01:40:23;;;;;;;0.73;0.73;;;;;;;13.34;100.00;99863.97;5091398;28;20206;-75
2023/03/22 01:42:52;;;;;;;0.82;0.82;;;;;;;13.29;100.00;99842.28;5091419;28;20205;-74
2023/03/22 01:45:39;;;;;;;1.00;1.00;;;;;;;13.36;100.00;99849.22;5036655;28;20826;-75
2023/03/22 01:48:14;;;;;;;0.65;0.65;;;;;;;13.37;100.00;99866.59;5091266;28;20202;-74
2023/03/22 01:50:45;;;;;;;0.60;0.60;;;;;;;13.12;100.00;99846.63;5084239;28;20204;-75
2023/03/22 01:53:17;;;;;;;0.93;0.93;;;;;;;13.11;100.00;99842.28;5090897;28;20211;-75
2023/03/22 01:55:46;;;;;;;0.60;0.60;;;;;;;13.16;100.00;99858.75;5090958;28;20255;-75
2023/03/22 01:58:16;;;;;;;0.80;0.80;;;;;;;13.14;100.00;99863.09;5090563;28;20229;-75
2023/03/22 02:00:44;;;;;;;1.90;1.80;;;;;;;12.92;100.00;99843.06;5091245;28;20696;-75
2023/03/22 02:03:12;;;;;;;1.00;1.00;;;;;;;13.02;100.00;99857.81;5091731;28;20204;-76
2023/03/22 02:05:40;;;;;;;0.60;0.60;;;;;;;13.07;100.00;99860.44;5090867;28;20190;-76
2023/03/22 02:08:08;;;;;;;0.68;0.68;;;;;;;12.96;100.00;99849.16;5091345;28;20201;-75
2023/03/22 02:10:35;;;;;;;0.70;0.70;;;;;;;12.99;100.00;99849.16;5091395;28;20562;-75
2023/03/22 02:13:25;;;;;;;0.70;0.70;;;;;;;13.05;100.00;99850.06;5091666;28;20201;-76
2023/03/22 02:16:02;;;;;;;0.60;0.60;;;;;;;13.04;100.00;99839.63;5091172;28;20226;-75
2023/03/22 02:18:48;;;;;;;0.60;0.60;;;;;;;13.07;100.00;99837.03;5091260;28;20232;-75
2023/03/22 02:21:42;;;;;;;0.60;0.60;;;;;;;13.05;100.00;99826.63;5084021;28;20275;-75
2023/03/22 02:25:00;;;;;;;0.60;0.60;;;;;;;12.96;100.00;99826.59;5086818;28;20190;-75
2023/03/22 02:27:46;;;;;;;0.70;0.70;;;;;;;12.71;100.00;99828.28;5008217;28;20668;-75
2023/03/22 02:30:53;;;;;;;0.73;0.73;;;;;;;12.62;100.00;99830.00;5002972;28;20200;-75
2023/03/22 02:33:48;;;;;;;0.70;0.70;;;;;;;12.54;100.00;99831.72;5009282;28;20201;-75
2023/03/22 02:36:29;;;;;;;0.70;0.70;;;;;;;12.47;100.00;99829.97;5008722;28;20196;-75
2023/03/22 02:39:28;;;;;;;0.77;0.77;;;;;;;12.52;100.00;99838.66;4992672;28;20200;-75
2023/03/22 02:42:07;;;;;;;0.70;0.70;;;;;;;12.34;100.00;99823.88;4969664;28;20209;-75
2023/03/22 02:44:42;;;;;;;0.80;0.80;;;;;;;12.32;100.00;99841.16;4969170;28;20205;-75
2023/03/22 02:47:21;;;;;;;0.60;0.60;;;;;;;12.27;100.00;99835.94;4964690;28;20205;-75
2023/03/22 02:49:56;;;;;;;2.30;2.20;;;;;;;12.26;100.00;99834.22;4973556;28;20205;-74
2023/03/22 02:52:31;;;;;;;0.80;0.80;;;;;;;12.32;100.00;99831.66;4973495;28;20198;-75
2023/03/22 02:55:06;;;;;;;0.65;0.65;;;;;;;12.16;100.00;99809.06;4973022;28;20232;-74
2023/03/22 02:57:40;;;;;;;0.73;0.73;;;;;;;12.40;100.00;99845.56;4989445;28;20242;-75
2023/03/22 03:00:11;;;;;;;0.70;0.70;;;;;;;12.34;100.00;99832.50;5031707;28;20223;-75
2023/03/22 03:02:41;;;;;;;0.90;0.90;;;;;;;12.40;100.00;99842.94;5031812;28;20200;-74
2023/03/22 03:05:10;;;;;;;0.70;0.70;;;;;;;12.36;100.00;99843.81;5028239;28;20197;-75
2023/03/22 03:07:38;;;;;;;0.70;0.70;;;;;;;12.42;100.00;99843.81;5012565;28;20200;-74
2023/03/22 03:10:08;;;;;;;0.80;0.80;;;;;;;12.51;100.00;99842.13;5025828;28;20211;-74
2023/03/22 03:12:35;;;;;;;1.10;1.10;;;;;;;12.41;100.00;99847.25;5031316;28;20200;-74
2023/03/22 03:15:02;;;;;;;1.00;1.00;;;;;;;12.36;100.00;99848.13;5031375;28;20211;-74
2023/03/22 03:17:46;;;;;;;0.80;0.80;;;;;;;12.36;100.00;99817.81;5032251;28;20738;-74
2023/03/22 03:20:28;;;;;;;0.80;0.80;;;;;;;12.32;100.00;99826.44;5061003;28;20202;-74
2023/03/22 03:23:04;;;;;;;1.27;1.27;;;;;;;12.25;100.00;99819.47;5073965;28;20648;-74
2023/03/22 03:25:42;;;;;;;0.60;0.60;;;;;;;12.44;100.00;99843.84;5073535;28;20289;-74
2023/03/22 03:28:21;;;;;;;0.70;0.70;;;;;;;12.52;100.00;99844.69;5056077;28;20210;-74
2023/03/22 03:30:57;;;;;;;0.70;0.70;;;;;;;12.52;100.00;99846.47;5073510;28;20283;-75
2023/03/22 03:33:27;;;;;;;0.60;0.60;;;;;;;12.60;100.00;99837.81;5074195;28;20201;-75
2023/03/22 03:35:59;;;;;;;0.70;0.70;;;;;;;12.38;100.00;99847.25;5027002;28;20219;-75
2023/03/22 03:38:29;;;;;;;0.60;0.60;;;;;;;12.45;100.00;99844.69;5054461;28;20318;-76
2023/03/22 03:41:01;;;;;;;0.77;0.77;;;;;;;12.52;100.00;99849.06;5073473;28;20186;-75
2023/03/22 03:43:28;;;;;;;0.65;0.65;;;;;;;12.39;100.00;99849.00;5073058;28;20191;-75
2023/03/22 03:45:55;;;;;;;0.70;0.70;;;;;;;12.45;100.00;99842.09;5072911;28;20684;-75
2023/03/22 03:48:24;;;;;;;0.60;0.60;;;;;;;12.41;100.00;99834.25;5073292;28;20202;-75
2023/03/22 03:50:54;;;;;;;1.00;1.00;;;;;;;12.56;100.00;99848.19;5061106;28;20210;-74
2023/03/22 03:53:20;;;;;;;0.68;0.68;;;;;;;12.48;100.00;99842.09;5072984;28;20577;-75
2023/03/22 03:55:47;;;;;;;0.60;0.60;;;;;;;12.50;100.00;99850.78;5072480;28;20206;-74
2023/03/22 03:58:16;;;;;;;0.60;0.60;;;;;;;12.47;100.00;99853.38;5056640;28;20662;-75
2023/03/22 04:00:42;;;;;;;0.70;0.70;;;;;;;12.39;100.00;99854.19;5085838;28;20206;-75
2023/03/22 04:03:10;;;;;;;1.17;1.17;;;;;;;12.38;100.00;99857.66;5092883;28;20571;-75
2023/03/22 04:05:36;;;;;;;2.60;1.30;;;;;;;12.30;100.00;99829.91;5092947;28;20205;-75
2023/03/22 04:08:03;;;;;;;0.80;0.80;;;;;;;12.35;100.00;99841.19;5093318;28;20209;-74
2023/03/22 04:10:30;;;;;;;0.70;0.70;;;;;;;12.51;100.00;99857.72;5039388;28;20199;-75
2023/03/22 04:12:57;;;;;;;0.90;0.90;;;;;;;12.44;100.00;99843.84;5093035;28;20209;-74
2023/03/22 04:15:25;;;;;;;0.63;0.63;;;;;;;12.43;100.00;99840.34;5092179;28;20190;-75
2023/03/22 04:17:53;;;;;;;0.80;0.80;;;;;;;12.42;100.00;99863.75;5093369;28;20292;-75
2023/03/22 04:20:20;;;;;;;0.60;0.60;;;;;;;12.46;100.00;99860.28;5093228;28;20202;-75
2023/03/22 04:22:48;;;;;;;4.57;1.23;;;;;;;12.55;100.00;99864.66;5077629;28;20260;-75
2023/03/22 04:25:17;;;;;;;0.80;0.80;;;;;;;12.48;100.00;99873.31;5072973;28;20203;-75
2023/03/22 04:27:46;;;;;;;0.70;0.70;;;;;;;12.50;100.00;99871.56;5082622;28;20201;-74
2023/03/22 04:30:17;;;;;;;0.90;0.90;;;;;;;12.58;100.00;99869.88;5092841;28;20203;-75
2023/03/22 04:32:46;;;;;;;0.70;0.70;;;;;;;12.61;100.00;99867.28;5092678;28;20230;-74
2023/03/22 04:35:13;;;;;;;0.60;0.60;;;;;;;12.41;100.00;99873.25;5092494;28;20198;-75
2023/03/22 04:37:40;;;;;;;2.65;2.22;;;;;;;12.35;100.00;99875.84;5092407;28;20229;-75
2023/03/22 04:40:08;;;;;;;0.88;0.88;;;;;;;12.45;100.00;99874.16;5092446;28;20202;-75
2023/03/22 04:42:35;;;;;;;0.60;0.60;;;;;;;12.46;100.00;99885.41;5092732;28;20201;-75
2023/03/22 04:45:03;;;;;;;2.03;1.92;;;;;;;12.35;100.00;99878.44;5091962;28;20209;-75
2023/03/22 04:47:30;;;;;;;0.80;0.80;;;;;;;12.43;100.00;99887.16;5092545;28;20194;-75
2023/03/22 04:49:58;;;;;;;17.10;6.78;;;;;;;12.55;100.00;99883.75;5092428;28;20194;-75
2023/03/22 04:52:25;;;;;;;0.98;0.98;;;;;;;12.44;100.00;99885.44;5092521;28;20665;-75
2023/03/22 04:54:52;;;;;;;0.70;0.70;;;;;;;12.48;100.00;99894.13;5090133;28;20665;-75
2023/03/22 04:57:18;;;;;;;3.03;2.38;;;;;;;12.30;100.00;99880.19;5048156;28;20206;-75
2023/03/22 04:59:45;;;;;;;0.55;0.55;;;;;;;12.41;100.00;99891.47;5086952;28;20230;-75
2023/03/22 05:02:12;;;;;;;0.60;0.60;;;;;;;12.33;100.00;99885.38;5086064;28;20193;-75
2023/03/22 05:04:39;;;;;;;0.70;0.70;;;;;;;12.35;100.00;99894.03;5083361;28;20202;-75
2023/03/22 05:07:07;;;;;;;3.30;2.45;;;;;;;12.27;100.00;99898.34;5083319;28;20205;-75
2023/03/22 05:09:34;;;;;;;0.70;0.70;;;;;;;12.23;100.00;99891.41;5085152;28;20199;-75
2023/03/22 05:12:00;;;;;;;0.77;0.77;;;;;;;12.29;100.00;99899.22;5084801;28;20610;-75
2023/03/22 05:14:27;;;;;;;0.70;0.70;;;;;;;12.23;100.00;99883.59;5055295;28;20186;-75
2023/03/22 05:16:54;;;;;;;0.70;0.70;;;;;;;12.35;100.00;99904.44;5031882;28;20194;-75
2023/03/22 05:19:23;;;;;;;0.88;0.88;;;;;;;12.24;100.00;99887.03;5084381;28;20728;-75
2023/03/22 05:21:56;;;;;;;0.80;0.80;;;;;;;12.26;100.00;99903.53;5083119;28;20279;-75
2023/03/22 05:24:24;;;;;;;1.45;1.45;;;;;;;12.30;100.00;99910.50;5047320;28;20194;-74
2023/03/22 05:26:52;;;;;;;0.70;0.70;;;;;;;12.27;100.00;99887.94;5085629;28;20194;-75
2023/03/22 05:29:20;;;;;;;1.58;1.42;;;;;;;12.43;100.00;99902.75;5088407;28;20202;-75
2023/03/22 05:31:47;;;;;;;0.60;0.60;;;;;;;12.36;100.00;99914.00;5085753;28;20262;-75
2023/03/22 05:34:13;;;;;;;0.70;0.70;;;;;;;12.26;100.00;99922.59;5090788;28;20217;-75
2023/03/22 05:36:40;;;;;;;3.92;2.90;;;;;;;12.14;100.00;99930.31;5056122;28;20210;-74
2023/03/22 05:39:07;;;;;;;1.20;1.20;;;;;;;12.13;100.00;99919.94;5091274;28;20218;-75
2023/03/22 05:41:36;;;;;;;1.88;1.77;;;;;;;12.26;100.00;99924.34;5091657;28;20234;-75
2023/03/22 05:44:02;;;;;;;0.82;0.82;;;;;;;12.24;100.00;99926.91;5088731;28;20213;-77
2023/03/22 05:46:29;;;;;;;0.70;0.70;;;;;;;12.19;100.00;99906.97;5090696;28;20205;-71
2023/03/22 05:48:56;;;;;;;0.68;0.68;;;;;;;12.24;100.00;99932.13;5081745;28;20211;-76
2023/03/22 05:51:24;;;;;;;4.85;1.60;;;;;;;12.06;100.00;99906.00;5086364;28;20202;-78
2023/03/22 05:53:52;;;;;;;0.60;0.60;;;;;;;12.19;100.00;99930.38;5077840;28;20202;-77
2023/03/22 05:56:20;;;;;;;2.70;1.60;;;;;;;12.09;100.00;99937.25;5090900;28;20587;-78
2023/03/22 05:58:48;;;;;;;1.02;1.02;;;;;;;12.13;100.00;99938.97;5022430;28;20230;-78
2023/03/22 06:01:16;;;;;;;1.27;1.27;;;;;;;12.09;100.00;99934.66;5088810;28;20239;-78
2023/03/22 06:03:42;;;;;;;1.45;1.35;;;;;;;11.78;100.00;99927.47;5087898;28;20287;-79
2023/03/22 06:06:10;;;;;;;1.10;1.10;;;;;;;11.87;100.00;99935.34;5089108;28;20206;-77
2023/03/22 06:08:38;;;;;;;2.20;2.10;;;;;;;11.90;100.00;99936.25;5056024;28;20220;-78
2023/03/22 06:11:05;;;;;;;2.40;2.03;;;;;;;11.87;100.00;99941.41;5085752;28;20286;-79
2023/03/22 06:13:32;;;;;;;0.80;0.80;;;;;;;12.04;100.00;99944.13;5090618;28;20202;-78
2023/03/22 06:16:02;;;;;;;0.98;0.98;;;;;;;12.03;100.00;99939.78;5091125;28;20206;-78
2023/03/22 06:18:29;;;;;;;1.02;1.02;;;;;;;12.15;100.00;99950.25;5082431;28;20230;-78
2023/03/22 06:20:56;;;;;;;1.55;1.55;;;;;;;12.02;100.00;99956.22;5091259;28;20202;-79
2023/03/22 06:23:23;;;;;;;0.93;0.93;;;;;;;11.79;100.00;99935.28;5095276;28;20205;-79
2023/03/22 06:25:50;;;;;;;0.85;0.85;;;;;;;12.09;100.00;99963.22;5094283;28;20209;-79
2023/03/22 06:28:17;;;;;;;5.15;2.15;;;;;;;11.93;100.00;99945.78;5092512;28;20280;-79
2023/03/22 06:30:44;;;;;;;1.27;1.27;;;;;;;12.04;100.00;99964.03;5090420;28;20208;-79
2023/03/22 06:33:12;;;;;;;0.80;0.80;;;;;;;12.12;100.00;99963.25;5095406;28;20209;-80
2023/03/22 06:35:39;;;;;;;2.63;2.25;;;;;;;12.01;100.00;99961.44;5086623;28;20202;-77
2023/03/22 06:38:05;;;;;;;0.70;0.70;;;;;;;12.00;100.00;99963.16;5093064;28;20221;-80
2023/03/22 06:40:34;;;;;;;1.10;1.02;;;;;;;11.97;100.00;99973.53;5096717;28;20673;-80
2023/03/22 06:43:01;;;;;;;1.30;1.30;;;;;;;11.99;100.00;99978.72;5096646;28;20669;-78
2023/03/22 06:45:32;;;;;;;1.00;1.00;;;;;;;11.96;100.00;99979.56;5096550;28;20225;-78
2023/03/22 06:47:59;;;;;;;1.50;1.48;;;;;;;12.02;100.00;99971.81;5089040;28;20651;-78
2023/03/22 06:50:27;;;;;;;0.70;0.70;;;;;;;12.30;100.00;99986.75;5094632;28;20198;-78
2023/03/22 06:52:54;;;;;;;1.52;1.52;;;;;;;12.40;100.00;99992.88;5086776;28;20685;-77
2023/03/22 06:55:21;;;;;;;1.65;1.55;;;;;;;12.45;100.00;100001.56;5096908;28;20248;-76
2023/03/22 06:57:48;;;;;;;0.70;0.70;;;;;;;12.34;100.00;99985.91;5088889;28;20203;-77
2023/03/22 07:00:16;;;;;;;1.30;1.30;;;;;;;12.42;100.00;100004.16;5090285;28;20222;-78
2023/03/22 07:02:43;;;;;;;0.98;0.98;;;;;;;12.11;100.00;99982.28;5096694;28;20205;-81
2023/03/22 07:05:10;;;;;;;0.63;0.63;;;;;;;11.97;100.00;99933.66;5096298;28;20673;-75
2023/03/22 07:07:38;;;;;;;0.60;0.60;;;;;;;12.36;100.00;99999.78;5096060;28;20233;-74
2023/03/22 07:10:07;;;;;;;0.63;0.63;;;;;;;12.26;100.00;99998.00;5087628;28;20213;-78
2023/03/22 07:12:34;;;;;;;0.70;0.70;;;;;;;12.47;100.00;100004.19;5092264;28;20238;-79
2023/03/22 07:15:01;;;;;;;0.80;0.80;;;;;;;12.40;100.00;100017.16;5062602;28;20206;-75
2023/03/22 07:17:28;;;;;;;0.80;0.80;;;;;;;12.33;100.00;99999.78;5096413;28;20272;-79
2023/03/22 07:19:55;;;;;;;0.70;0.70;;;;;;;12.27;100.00;100020.50;5096438;28;20332;-76
2023/03/22 07:22:23;;;;;;;0.70;0.70;;;;;;;12.31;100.00;100019.69;5096217;28;20514;-78
2023/03/22 07:24:52;;;;;;;2.17;2.15;;;;;;;12.12;100.00;100009.16;5087294;28;20202;-78
2023/03/22 07:27:19;;;;;;;0.70;0.70;;;;;;;12.21;100.00;100028.28;5096221;28;20338;-77
2023/03/22 07:29:46;;;;;;;0.82;0.82;;;;;;;12.22;100.00;100022.22;5081248;28;20313;-78
2023/03/22 07:32:15;;;;;;;0.60;0.60;;;;;;;12.30;100.00;100022.28;5091333;28;20289;-80
2023/03/22 07:34:41;;;;;;;1.92;1.80;;;;;;;12.41;100.00;100024.06;5091624;28;20604;-78
2023/03/22 07:37:08;;;;;;;0.88;0.88;;;;;;;12.27;100.00;100012.72;5052700;28;20217;-78
2023/03/22 07:39:35;;;;;;;0.70;0.70;;;;;;;12.49;100.00;100033.66;5088835;28;20252;-77
2023/03/22 07:42:03;;;;;;;0.68;0.68;;;;;;;11.99;100.00;99989.97;5091648;28;20202;-79
2023/03/22 07:44:30;;;;;;;0.85;0.85;;;;;;;12.18;100.00;100016.97;5091543;28;20198;-79
2023/03/22 07:46:57;;;;;;;0.60;0.60;;;;;;;12.40;100.00;100027.56;5091802;28;20213;-79
2023/03/22 07:49:26;;;;;;;0.60;0.60;;;;;;;12.32;100.00;100029.22;5055159;28;20206;-79
2023/03/22 07:51:52;;;;;;;0.60;0.60;;;;;;;12.41;100.00;100029.28;5092075;28;20205;-80
2023/03/22 07:54:19;;;;;;;0.70;0.70;;;;;;;12.50;100.00;100033.69;5076854;28;20280;-79
2023/03/22 07:56:47;;;;;;;0.90;0.90;;;;;;;12.33;100.00;100036.19;5085540;28;20205;-79
2023/03/22 07:59:15;;;;;;;0.90;0.90;;;;;;;12.42;100.00;99999.81;5092612;28;20257;-80
2023/03/22 08:01:42;;;;;;;0.77;0.77;;;;;;;12.67;100.00;100018.16;5084512;28;20687;-78
2023/03/22 08:04:09;;;;;;;1.10;1.10;;;;;;;12.64;100.00;100031.16;5078099;28;20213;-77
2023/03/22 08:06:36;;;;;;;1.33;1.33;;;;;;;12.62;100.00;100032.88;5090877;28;20669;-78
2023/03/22 08:09:04;;;;;;;4.72;1.25;;;;;;;12.29;100.00;100039.59;5086160;28;20203;-80
2023/03/22 08:11:31;;;;;;;6.05;2.15;;;;;;;12.13;100.00;100022.13;5081792;28;20232;-78
2023/03/22 08:13:57;;;;;;;1.58;1.48;;;;;;;12.69;100.00;100032.06;5087474;28;20198;-78
2023/03/22 08:16:26;;;;;;;0.90;0.90;;;;;;;12.36;100.00;100031.00;5034851;28;20202;-78
2023/03/22 08:18:52;;;;;;;0.60;0.60;;;;;;;12.23;100.00;100031.78;5077921;28;20253;-77
2023/03/22 08:21:19;;;;;;;1.00;1.00;;;;;;;12.29;100.00;100028.34;5091810;28;20220;-77
2023/03/22 08:23:46;;;;;;;1.48;1.13;;;;;;;12.11;100.00;100030.78;5092116;28;20786;-78
2023/03/22 08:26:13;;;;;;;0.90;0.90;;;;;;;12.05;100.00;100023.84;5091844;28;20688;-77
2023/03/22 08:28:40;;;;;;;0.70;0.70;;;;;;;12.11;100.00;100034.25;5077634;28;20203;-77
2023/03/22 08:31:11;;;;;;;1.10;1.10;;;;;;;12.18;100.00;100030.84;5091987;28;20694;-78
2023/03/22 08:33:40;;;;;;;0.82;0.82;;;;;;;12.16;100.00;99995.31;5092335;28;20299;-78
2023/03/22 08:36:08;;;;;;;1.75;1.75;;;;;;;12.04;100.00;100032.47;5074158;28;20211;-73
2023/03/22 08:38:35;;;;;;;1.17;1.17;;;;;;;11.89;100.00;100035.81;5072524;28;20221;-76
2023/03/22 08:41:02;;;;;;;1.60;1.60;;;;;;;11.88;100.00;100030.59;5091066;28;20234;-76
2023/03/22 08:43:29;;;;;;;2.25;2.15;;;;;;;11.96;100.00;100023.75;5092069;28;20198;-76
2023/03/22 08:45:55;;;;;;;1.25;1.25;;;;;;;12.00;100.00;100038.50;5091979;28;20209;-76
2023/03/22 08:48:22;;;;;;;0.47;0.47;;;;;;;12.00;100.00;100035.91;5092545;28;20210;-76
2023/03/22 08:50:50;;;;;;;0.77;0.77;;;;;;;12.15;100.00;100038.63;5092308;28;20202;-77
2023/03/22 08:53:17;;;;;;;0.70;0.70;;;;;;;11.96;100.00;100041.94;5092326;28;20198;-78
2023/03/22 08:55:44;;;;;;;0.70;0.70;;;;;;;12.03;100.00;100041.13;5092045;28;20202;-78
2023/03/22 08:58:11;;;;;;;1.25;1.25;;;;;;;12.05;100.00;100023.84;5091985;28;20692;-77
2023/03/22 09:00:39;;;;;;;0.70;0.70;;;;;;;11.96;100.00;100044.53;5092267;28;20233;-76
2023/03/22 09:03:05;;;;;;;0.60;0.60;;;;;;;11.93;100.00;100022.00;5092084;28;20212;-76
2023/03/22 09:05:32;;;;;;;0.63;0.63;;;;;;;12.16;100.00;100048.19;5091958;28;20685;-76
2023/03/22 09:08:01;;;;;;;1.85;0.98;;;;;;;12.25;100.00;100049.97;5092049;28;20198;-76
2023/03/22 09:10:28;;;;;;;0.65;0.65;;;;;;;11.91;100.00;100028.03;5053083;28;20641;-76
2023/03/22 09:12:54;;;;;;;1.13;1.13;;;;;;;11.99;100.00;100049.75;5085698;28;20197;-76
2023/03/22 09:15:21;;;;;;;0.70;0.70;;;;;;;11.84;100.00;100052.22;5030537;28;20657;-76
2023/03/22 09:17:48;;;;;;;0.70;0.70;;;;;;;11.87;100.00;100036.66;5056230;28;20209;-76
2023/03/22 09:20:15;;;;;;;0.70;0.70;;;;;;;12.03;100.00;100046.31;5091640;28;20225;-76
2023/03/22 09:22:42;;;;;;;1.00;1.00;;;;;;;11.83;100.00;100030.56;5090750;28;20229;-77
2023/03/22 09:25:11;;;;;;;0.57;0.57;;;;;;;12.00;100.00;100038.50;5078574;28;20248;-76
2023/03/22 09:27:37;;;;;;;0.60;0.60;;;;;;;11.83;100.00;100050.47;5091810;28;20210;-76
2023/03/22 09:30:05;;;;;;;0.70;0.70;;;;;;;11.86;100.00;100040.09;5091319;28;20202;-77
2023/03/22 09:32:32;;;;;;;0.93;0.93;;;;;;;11.92;100.00;100047.94;5091529;28;20194;-77
2023/03/22 09:34:59;;;;;;;0.70;0.70;;;;;;;11.90;100.00;100024.56;5077008;28;20209;-76
2023/03/22 09:37:29;;;;;;;0.60;0.60;;;;;;;11.59;100.00;99957.59;5091513;28;20226;-75
2023/03/22 09:39:56;;;;;;;0.80;0.80;;;;;;;11.98;100.00;100035.03;5091318;28;20230;-79
2023/03/22 09:42:36;;;;;;;0.60;0.60;;;;;;;12.02;100.00;100028.13;5091606;28;20201;-77
2023/03/22 09:45:05;;;;;;;0.80;0.80;;;;;;;12.22;100.00;100042.16;5077102;28;20726;-78
2023/03/22 09:47:35;;;;;;;1.25;1.25;;;;;;;12.38;100.00;100054.38;5091282;28;20229;-78
2023/03/22 09:50:07;;;;;;;0.60;0.60;;;;;;;12.40;100.00;100031.88;5056146;28;20198;-78
2023/03/22 09:52:34;;;;;;;1.17;1.17;;;;;;;12.38;100.00;100043.97;5088637;28;20202;-78
2023/03/22 09:55:01;;;;;;;0.82;0.82;;;;;;;12.49;100.00;100047.53;5091252;28;20293;-77
2023/03/22 09:57:33;;;;;;;0.80;0.80;;;;;;;12.51;100.00;100050.16;5090540;28;20205;-77
2023/03/22 10:00:13;;;;;;;0.70;0.70;;;;;;;12.53;100.00;100049.28;5090797;28;20265;-77
2023/03/22 10:02:53;;;;;;;0.70;0.70;;;;;;;12.67;100.00;100045.06;5051008;28;20201;-77
2023/03/22 10:05:26;;;;;;;1.13;1.13;;;;;;;12.51;100.00;100026.75;5084504;28;20688;-78
2023/03/22 10:08:14;;;;;;;0.80;0.80;;;;;;;12.91;100.00;100059.94;5077484;28;20281;-77
2023/03/22 10:10:42;;;;;;;0.70;0.70;;;;;;;12.94;100.00;100062.56;5090890;28;20224;-77
2023/03/22 10:13:18;;;;;;;0.70;0.70;;;;;;;12.97;100.00;100065.19;5090669;28;20202;-77
2023/03/22 10:15:47;;;;;;;0.65;0.65;;;;;;;13.10;100.00;100064.38;5090968;28;20205;-77
2023/03/22 10:18:19;;;;;;;0.90;0.90;;;;;;;13.31;100.00;100069.69;5091081;28;20229;-77
2023/03/22 10:20:52;;;;;;;0.60;0.60;;;;;;;13.25;100.00;100074.00;5090233;28;20279;-78
2023/03/22 10:23:25;;;;;;;1.10;1.10;;;;;;;13.21;100.00;100073.13;5078078;28;20212;-77
2023/03/22 10:25:53;;;;;;;0.80;0.80;;;;;;;13.17;100.00;100050.53;5038414;28;20230;-77
2023/03/22 10:28:27;;;;;;;0.63;0.63;;;;;;;13.44;100.00;100069.75;5090862;28;20256;-76
2023/03/22 10:30:56;;;;;;;0.60;0.60;;;;;;;13.48;100.00;100079.31;5090715;28;20588;-76
2023/03/22 10:33:33;;;;;;;0.70;0.70;;;;;;;13.36;100.00;100078.41;5076867;28;20206;-74
2023/03/22 10:36:02;;;;;;;0.60;0.60;;;;;;;13.44;100.00;100080.16;5090584;28;20217;-74
2023/03/22 10:38:30;;;;;;;0.90;0.90;;;;;;;13.14;100.00;100055.75;5090868;28;20209;-74
2023/03/22 10:40:59;;;;;;;0.70;0.70;;;;;;;13.31;100.00;100080.09;5090879;28;20244;-77
2023/03/22 10:43:32;;;;;;;0.60;0.60;;;;;;;13.57;100.00;100079.31;5090392;28;20205;-77
2023/03/22 10:46:02;;;;;;;0.70;0.70;;;;;;;13.55;100.00;100078.47;5090438;28;20695;-76
2023/03/22 10:48:32;;;;;;;1.58;1.58;;;;;;;13.51;100.00;100069.75;5090366;28;20617;-76
2023/03/22 10:51:01;;;;;;;0.80;0.80;;;;;;;13.70;100.00;100063.72;5076397;28;20198;-76
2023/03/22 10:53:37;;;;;;;0.90;0.90;;;;;;;14.37;100.00;100064.69;5090957;28;20206;-77
2023/03/22 10:56:05;;;;;;;0.60;0.60;;;;;;;14.42;100.00;100071.63;5077579;28;20206;-77
2023/03/22 10:58:34;;;;;;;0.93;0.93;;;;;;;14.64;100.00;100079.44;5090166;28;20229;-79
2023/03/22 11:01:05;;;;;;;0.70;0.70;;;;;;;14.45;100.00;100040.34;5069897;28;20229;-79
2023/03/22 11:03:38;;;;;;;0.70;0.70;;;;;;;14.82;100.00;100079.41;5070136;28;20214;-79
2023/03/22 11:06:08;;;;;;;0.50;0.50;;;;;;;14.45;100.00;100076.84;5090219;28;20202;-76
2023/03/22 11:08:46;;;;;;;0.70;0.70;;;;;;;14.46;100.00;100073.34;5093193;28;20202;-76
2023/03/22 11:11:19;;;;;;;0.70;0.70;;;;;;;14.50;100.00;100075.09;5094044;28;20240;-77
2023/03/22 11:13:53;;;;;;;0.80;0.80;;;;;;;14.27;100.00;100052.47;5093897;28;20221;-77
2023/03/22 11:16:21;;;;;;;0.75;0.75;;;;;;;14.52;100.00;100050.72;5074013;28;20244;-78
2023/03/22 11:18:47;;;;;;;0.60;0.60;;;;;;;14.66;100.00;100062.00;5086059;28;20202;-76
2023/03/22 11:21:17;;;;;;;0.70;0.70;;;;;;;14.68;100.00;100070.72;5093742;28;20225;-77
2023/03/22 11:23:54;;;;;;;0.70;0.70;;;;;;;14.89;100.00;100043.69;5082834;28;20207;-77
2023/03/22 11:26:27;;;;;;;0.32;0.32;;;;;;;14.77;100.00;99988.91;5092295;28;20695;-77
2023/03/22 11:29:02;;;;;;;3.97;3.72;;;;;;;15.14;100.00;100071.47;5094173;28;20202;-77
2023/03/22 11:31:49;;;;;;;0.60;0.60;;;;;;;15.44;100.00;100059.16;5094164;28;20208;-76
2023/03/22 11:34:18;;;;;;;0.82;0.82;;;;;;;15.17;100.00;100061.00;5093728;28;20198;-78